createdAt,value
2018-02-15T00:01:08.895Z,-2.40
2018-02-15T00:03:35.531Z,-2.40
2018-02-15T00:06:02.914Z,-2.40
2018-02-15T00:08:29.656Z,-2.40
2018-02-15T00:10:56.905Z,-2.40
2018-02-15T00:13:23.514Z,-2.60
2018-02-15T00:15:50.385Z,-2.60
2018-02-15T00:18:17.021Z,-2.70
2018-02-15T00:20:43.580Z,-2.70
2018-02-15T00:23:10.259Z,-2.80
2018-02-15T00:25:37.034Z,-2.50
2018-02-15T00:28:03.815Z,-2.90
2018-02-15T00:30:31.753Z,-3.10
2018-02-15T00:32:58.420Z,-3.10
2018-02-15T00:35:25.118Z,-3.20
2018-02-15T00:37:51.775Z,-3.20
2018-02-15T00:40:19.437Z,-3.20
2018-02-15T00:42:46.182Z,-3.20
2018-02-15T00:45:12.797Z,-3.30
2018-02-15T00:47:39.364Z,-3.30
2018-02-15T00:50:06.808Z,-3.40
2018-02-15T00:52:33.979Z,-3.30
2018-02-15T00:55:01.103Z,-3.30
2018-02-15T00:57:27.683Z,-3.20
2018-02-15T00:59:55.057Z,-3.30
2018-02-15T01:02:22.902Z,-3.30
2018-02-15T01:04:49.477Z,-3.40
2018-02-15T01:07:16.493Z,-3.30
2018-02-15T01:09:43.883Z,-3.30
2018-02-15T01:12:10.566Z,-3.30
2018-02-15T01:14:37.254Z,-3.40
2018-02-15T01:17:04.973Z,-3.30
2018-02-15T01:19:32.269Z,-3.40
2018-02-15T01:21:58.829Z,-3.50
2018-02-15T01:24:25.491Z,-3.60
2018-02-15T01:26:52.884Z,-3.70
2018-02-15T01:29:20.545Z,-3.70
2018-02-15T01:31:47.092Z,-4.00
2018-02-15T01:34:13.802Z,-3.70
2018-02-15T01:36:40.404Z,-3.60
2018-02-15T01:39:08.374Z,-3.60
2018-02-15T01:41:35.542Z,-3.60
2018-02-15T01:44:03.055Z,-3.60
2018-02-15T01:46:30.468Z,-3.60
2018-02-15T01:48:57.401Z,-3.60
2018-02-15T01:51:24.048Z,-3.60
2018-02-15T01:53:50.585Z,-3.50
2018-02-15T01:56:26.060Z,-3.50
2018-02-15T01:58:52.595Z,-3.50
2018-02-15T02:01:19.153Z,-3.90
2018-02-15T02:03:46.662Z,-3.50
2018-02-15T02:06:15.393Z,-3.30
2018-02-15T02:08:42.386Z,-3.40
2018-02-15T02:11:10.185Z,-3.50
2018-02-15T02:13:37.538Z,-3.50
2018-02-15T02:16:04.079Z,-3.50
2018-02-15T02:18:31.049Z,-3.50
2018-02-15T02:20:57.615Z,-3.50
2018-02-15T02:23:24.529Z,-3.50
2018-02-15T02:25:52.061Z,-3.50
2018-02-15T02:28:18.719Z,-3.50
2018-02-15T02:30:45.609Z,-3.50
2018-02-15T02:33:13.037Z,-3.50
2018-02-15T02:35:40.685Z,-3.50
2018-02-15T02:38:07.982Z,-3.70
2018-02-15T02:40:35.855Z,-3.60
2018-02-15T02:43:02.465Z,-3.50
2018-02-15T02:45:29.844Z,-3.50
2018-02-15T02:47:56.789Z,-3.50
2018-02-15T02:50:23.671Z,-3.50
2018-02-15T02:52:51.129Z,-3.60
2018-02-15T02:55:18.214Z,-3.60
2018-02-15T02:57:44.816Z,-3.50
2018-02-15T03:00:12.469Z,-3.50
2018-02-15T03:02:39.634Z,-3.90
2018-02-15T03:05:06.892Z,-3.60
2018-02-15T03:07:33.802Z,-3.50
2018-02-15T03:10:00.816Z,-3.50
2018-02-15T03:12:28.070Z,-3.60
2018-02-15T03:14:54.999Z,-3.40
2018-02-15T03:17:21.680Z,-3.50
2018-02-15T03:19:48.993Z,-3.50
2018-02-15T03:22:15.922Z,-3.60
2018-02-15T03:24:42.784Z,-3.60
2018-02-15T03:27:11.344Z,-3.40
2018-02-15T03:29:37.958Z,-3.60
2018-02-15T03:32:05.442Z,-3.50
2018-02-15T03:34:32.357Z,-3.50
2018-02-15T03:36:58.857Z,-3.50
2018-02-15T03:39:26.401Z,-3.60
2018-02-15T03:41:53.743Z,-3.60
2018-02-15T03:44:21.036Z,-3.60
2018-02-15T03:46:48.062Z,-3.60
2018-02-15T03:49:14.989Z,-3.60
2018-02-15T03:51:41.884Z,-3.60
2018-02-15T03:54:08.835Z,-3.60
2018-02-15T03:56:36.193Z,-3.60
2018-02-15T03:59:03.196Z,-3.60
2018-02-15T04:01:30.895Z,-3.40
2018-02-15T04:03:57.833Z,-3.40
2018-02-15T04:06:25.519Z,-3.50
2018-02-15T04:08:52.433Z,-3.50
2018-02-15T04:11:19.720Z,-3.40
2018-02-15T04:13:46.983Z,-3.40
2018-02-15T04:16:13.972Z,-3.40
2018-02-15T04:18:40.888Z,-3.30
2018-02-15T04:21:07.433Z,-3.30
2018-02-15T04:23:34.395Z,-3.30
2018-02-15T04:26:01.347Z,-3.80
2018-02-15T04:28:28.009Z,-3.10
2018-02-15T04:30:55.313Z,-3.20
2018-02-15T04:33:22.382Z,-3.50
2018-02-15T04:35:48.964Z,-3.10
2018-02-15T04:38:16.732Z,-3.20
2018-02-15T04:40:43.710Z,-3.10
2018-02-15T04:43:10.993Z,-3.20
2018-02-15T04:45:38.002Z,-3.90
2018-02-15T04:48:04.865Z,-3.10
2018-02-15T04:50:32.566Z,-3.20
2018-02-15T04:52:59.685Z,-3.20
2018-02-15T04:55:26.165Z,-3.20
2018-02-15T04:57:53.167Z,-3.10
2018-02-15T05:00:20.870Z,-3.10
2018-02-15T05:02:47.527Z,-3.10
2018-02-15T05:05:14.847Z,-3.10
2018-02-15T05:07:42.426Z,-2.90
2018-02-15T05:10:10.834Z,-3.10
2018-02-15T05:12:37.692Z,-3.10
2018-02-15T05:15:05.130Z,-3.10
2018-02-15T05:17:32.071Z,-3.10
2018-02-15T05:19:59.377Z,-3.10
2018-02-15T05:22:26.812Z,-3.00
2018-02-15T05:24:54.416Z,-3.00
2018-02-15T05:29:51.416Z,-3.00
2018-02-15T05:34:47.015Z,-3.20
2018-02-15T05:37:14.126Z,-3.00
2018-02-15T05:39:42.329Z,-2.90
2018-02-15T05:42:09.168Z,-2.90
2018-02-15T05:44:36.852Z,-2.90
2018-02-15T05:49:33.046Z,-2.90
2018-02-15T05:52:00.043Z,-2.90
2018-02-15T05:54:26.987Z,-3.00
2018-02-15T05:56:54.034Z,-2.90
2018-02-15T06:01:49.931Z,-3.00
2018-02-15T06:04:16.523Z,-3.10
2018-02-15T06:06:43.176Z,-3.10
2018-02-15T06:09:10.464Z,-3.20
2018-02-15T06:11:37.750Z,-3.30
2018-02-15T06:14:05.028Z,-3.10
2018-02-15T06:19:01.338Z,-3.20
2018-02-15T06:21:29.051Z,-3.30
2018-02-15T06:23:56.395Z,-3.20
2018-02-15T06:26:23.313Z,-2.70
2018-02-15T06:31:20.040Z,-3.20
2018-02-15T06:33:47.896Z,-3.20
2018-02-15T06:36:14.658Z,-3.20
2018-02-15T06:41:10.672Z,-3.20
2018-02-15T06:46:06.465Z,-3.10
2018-02-15T06:48:33.545Z,-3.00
2018-02-15T06:51:00.538Z,-3.00
2018-02-15T06:53:27.081Z,-3.00
2018-02-15T06:55:53.992Z,-2.90
2018-02-15T06:58:21.665Z,-2.70
2018-02-15T07:00:49.331Z,-3.20
2018-02-15T07:03:15.902Z,-2.80
2018-02-15T07:05:42.510Z,-2.90
2018-02-15T07:08:09.437Z,-2.80
2018-02-15T07:10:36.035Z,-2.70
2018-02-15T07:15:31.587Z,-2.70
2018-02-15T07:17:59.237Z,-2.70
2018-02-15T07:20:27.728Z,-2.80
2018-02-15T07:22:56.966Z,-2.50
2018-02-15T07:27:51.775Z,-2.50
2018-02-15T07:30:18.669Z,-2.20
2018-02-15T07:32:45.826Z,-2.40
2018-02-15T07:35:12.766Z,-2.40
2018-02-15T07:37:39.885Z,-2.30
2018-02-15T07:40:06.802Z,-2.30
2018-02-15T07:42:35.210Z,-2.30
2018-02-15T07:45:01.841Z,-2.20
2018-02-15T07:47:28.471Z,-2.20
2018-02-15T07:49:56.320Z,-2.20
2018-02-15T07:52:23.217Z,-2.20
2018-02-15T07:57:18.213Z,-2.30
2018-02-15T07:59:44.824Z,-2.20
2018-02-15T08:02:11.427Z,-2.10
2018-02-15T08:07:10.511Z,-2.10
2018-02-15T08:09:37.060Z,-2.10
2018-02-15T08:12:05.552Z,-1.90
2018-02-15T08:14:32.217Z,-1.80
2018-02-15T08:16:58.887Z,-1.50
2018-02-15T08:19:25.630Z,-1.50
2018-02-15T08:21:52.268Z,-1.40
2018-02-15T08:24:18.794Z,-1.30
2018-02-15T08:26:45.460Z,-1.40
2018-02-15T08:29:11.965Z,-1.10
2018-02-15T08:31:38.857Z,-0.30
2018-02-15T08:36:34.257Z,-0.70
2018-02-15T08:39:00.843Z,-0.80
2018-02-15T08:41:27.918Z,-0.60
2018-02-15T08:43:54.518Z,-0.70
2018-02-15T08:46:21.487Z,-0.70
2018-02-15T08:48:48.488Z,-0.20
2018-02-15T08:51:16.104Z,-0.80
2018-02-15T08:53:43.853Z,-0.70
2018-02-15T08:58:38.895Z,-0.70
2018-02-15T09:03:34.996Z,-0.70
2018-02-15T09:06:02.483Z,-0.70
2018-02-15T09:08:29.833Z,-0.60
2018-02-15T09:13:24.852Z,-0.40
2018-02-15T09:15:51.909Z,-0.90
2018-02-15T09:18:20.547Z,-0.10
2018-02-15T09:20:47.308Z,0.10
2018-02-15T09:23:14.012Z,0.10
2018-02-15T09:25:40.725Z,0.00
2018-02-15T09:28:07.409Z,0.00
2018-02-15T09:30:34.305Z,0.00
2018-02-15T09:33:01.297Z,-0.10
2018-02-15T09:35:29.129Z,0.60
2018-02-15T09:37:55.723Z,0.50
2018-02-15T09:40:22.639Z,0.70
2018-02-15T09:42:49.603Z,0.80
2018-02-15T09:45:16.158Z,0.40
2018-02-15T09:47:43.057Z,0.60
2018-02-15T09:50:10.378Z,0.80
2018-02-15T09:57:34.944Z,0.70
2018-02-15T10:00:01.567Z,0.90
2018-02-15T10:02:28.740Z,0.90
2018-02-15T10:09:55.734Z,0.90
2018-02-15T10:12:25.421Z,0.80
2018-02-15T10:14:54.003Z,0.90
2018-02-15T10:17:24.651Z,1.10
2018-02-15T10:19:51.510Z,1.20
2018-02-15T10:22:18.555Z,1.30
2018-02-15T10:24:45.240Z,1.50
2018-02-15T10:27:11.990Z,1.50
2018-02-15T10:29:39.748Z,1.40
2018-02-15T10:32:06.319Z,1.50
2018-02-15T10:34:32.846Z,1.60
2018-02-15T10:37:01.131Z,1.50
2018-02-15T10:39:28.114Z,1.50
2018-02-15T10:41:55.098Z,1.40
2018-02-15T10:44:22.130Z,1.60
2018-02-15T10:46:49.017Z,0.30
2018-02-15T10:49:16.043Z,1.20
2018-02-15T10:51:44.501Z,1.40
2018-02-15T10:54:11.795Z,1.50
2018-02-15T10:56:39.206Z,1.50
2018-02-15T10:59:07.017Z,2.00
2018-02-15T11:01:39.439Z,1.50
2018-02-15T11:04:14.760Z,1.90
2018-02-15T11:06:41.320Z,2.10
2018-02-15T11:11:36.075Z,2.50
2018-02-15T11:14:03.010Z,2.40
2018-02-15T11:16:29.894Z,2.10
2018-02-15T11:18:58.905Z,2.00
2018-02-15T11:21:25.484Z,1.90
2018-02-15T11:23:51.992Z,2.10
2018-02-15T11:26:18.564Z,1.90
2018-02-15T11:28:46.987Z,1.90
2018-02-15T11:31:13.569Z,1.90
2018-02-15T11:33:41.490Z,2.00
2018-02-15T11:36:08.147Z,2.00
2018-02-15T11:38:36.005Z,2.00
2018-02-15T11:41:03.495Z,2.00
2018-02-15T11:43:30.108Z,2.00
2018-02-15T11:45:56.694Z,2.20
2018-02-15T11:48:24.464Z,2.20
2018-02-15T11:50:51.189Z,2.30
2018-02-15T11:53:17.755Z,2.50
2018-02-15T11:55:45.181Z,2.70
2018-02-15T11:58:11.749Z,2.90
2018-02-15T12:00:38.721Z,3.70
2018-02-15T12:03:05.695Z,4.00
2018-02-15T12:05:32.261Z,3.80
2018-02-15T12:07:59.240Z,3.30
2018-02-15T12:10:26.712Z,2.80
2018-02-15T12:15:22.420Z,2.70
2018-02-15T12:17:49.079Z,2.20
2018-02-15T12:20:16.052Z,2.20
2018-02-15T12:22:44.300Z,2.10
2018-02-15T12:25:12.092Z,2.10
2018-02-15T12:27:38.597Z,2.20
2018-02-15T12:32:34.764Z,2.20
2018-02-15T12:35:01.315Z,2.30
2018-02-15T12:37:28.250Z,1.80
2018-02-15T12:39:55.914Z,2.20
2018-02-15T12:42:22.867Z,2.20
2018-02-15T12:47:17.777Z,2.40
2018-02-15T12:49:45.876Z,2.30
2018-02-15T12:52:12.388Z,2.40
2018-02-15T12:54:38.953Z,2.40
2018-02-15T12:57:06.447Z,2.30
2018-02-15T12:59:34.092Z,2.30
2018-02-15T13:02:01.248Z,2.20
2018-02-15T13:04:28.148Z,2.10
2018-02-15T13:06:54.674Z,2.20
2018-02-15T13:09:21.278Z,2.10
2018-02-15T13:11:47.819Z,2.10
2018-02-15T13:14:14.409Z,2.20
2018-02-15T13:16:59.682Z,2.60
2018-02-15T13:19:39.481Z,2.30
2018-02-15T13:22:18.139Z,2.40
2018-02-15T13:24:44.678Z,2.40
2018-02-15T13:27:11.604Z,2.00
2018-02-15T13:29:39.640Z,2.10
2018-02-15T13:32:06.175Z,2.00
2018-02-15T13:34:32.795Z,2.40
2018-02-15T13:36:59.327Z,2.40
2018-02-15T13:41:54.290Z,2.40
2018-02-15T13:44:21.324Z,2.50
2018-02-15T13:46:47.873Z,2.40
2018-02-15T13:49:15.129Z,2.60
2018-02-15T13:51:43.443Z,2.50
2018-02-15T13:56:39.156Z,2.40
2018-02-15T13:59:07.715Z,2.30
2018-02-15T14:01:34.297Z,2.30
2018-02-15T14:04:01.731Z,2.20
2018-02-15T14:06:28.787Z,2.40
2018-02-15T14:08:57.003Z,2.40
2018-02-15T14:11:26.442Z,2.40
2018-02-15T14:13:54.180Z,2.40
2018-02-15T14:16:20.751Z,2.50
2018-02-15T14:18:47.310Z,2.40
2018-02-15T14:21:13.976Z,2.20
2018-02-15T14:23:40.593Z,2.30
2018-02-15T14:26:07.190Z,2.30
2018-02-15T14:28:35.548Z,2.20
2018-02-15T14:31:02.236Z,2.30
2018-02-15T14:36:02.158Z,1.90
2018-02-15T14:38:28.732Z,2.10
2018-02-15T14:40:55.700Z,2.70
2018-02-15T14:43:22.372Z,2.00
2018-02-15T14:45:49.723Z,1.90
2018-02-15T14:48:16.298Z,2.00
2018-02-15T14:50:43.365Z,2.00
2018-02-15T14:53:10.616Z,1.80
2018-02-15T14:58:06.215Z,2.00
2018-02-15T15:00:33.280Z,1.90
2018-02-15T15:02:59.948Z,1.90
2018-02-15T15:05:26.869Z,1.90
2018-02-15T15:07:53.462Z,1.90
2018-02-15T15:10:19.993Z,2.00
2018-02-15T15:12:47.165Z,1.80
2018-02-15T15:15:14.566Z,1.80
2018-02-15T15:17:41.696Z,1.80
2018-02-15T15:20:09.262Z,1.30
2018-02-15T15:22:35.796Z,1.70
2018-02-15T15:25:02.798Z,1.80
2018-02-15T15:27:29.427Z,1.60
2018-02-15T15:29:56.724Z,1.70
2018-02-15T15:32:23.630Z,1.60
2018-02-15T15:34:52.983Z,1.60
2018-02-15T15:37:21.590Z,1.70
2018-02-15T15:39:48.227Z,1.70
2018-02-15T15:42:16.394Z,1.40
2018-02-15T15:44:43.370Z,2.00
2018-02-15T15:49:38.622Z,1.20
2018-02-15T15:52:05.465Z,1.50
2018-02-15T15:54:33.069Z,1.50
2018-02-15T15:57:00.138Z,1.40
2018-02-15T15:59:27.024Z,1.40
2018-02-15T16:01:54.125Z,1.40
2018-02-15T16:04:21.126Z,0.90
2018-02-15T16:06:47.999Z,1.40
2018-02-15T16:11:43.999Z,1.30
2018-02-15T16:14:10.609Z,1.30
2018-02-15T16:16:37.553Z,1.30
2018-02-15T16:21:32.636Z,1.10
2018-02-15T16:24:00.332Z,1.00
2018-02-15T16:26:26.897Z,1.00
2018-02-15T16:28:53.442Z,1.00
2018-02-15T16:31:20.407Z,1.00
2018-02-15T16:33:52.537Z,0.90
2018-02-15T16:36:19.452Z,1.00
2018-02-15T16:38:46.748Z,0.90
2018-02-15T16:41:13.369Z,0.80
2018-02-15T16:43:39.900Z,0.70
2018-02-15T16:46:10.081Z,0.90
2018-02-15T16:51:04.944Z,1.00
2018-02-15T16:58:29.387Z,0.30
2018-02-15T17:00:56.971Z,1.00
2018-02-15T17:03:25.591Z,1.00
2018-02-15T17:05:54.381Z,0.90
2018-02-15T17:08:21.054Z,1.10
2018-02-15T17:10:48.042Z,1.10
2018-02-15T17:13:15.997Z,1.00
2018-02-15T17:15:43.545Z,1.30
2018-02-15T17:18:10.270Z,1.00
2018-02-15T17:23:06.321Z,0.80
2018-02-15T17:25:33.836Z,1.10
2018-02-15T17:28:00.857Z,1.00
2018-02-15T17:30:27.704Z,1.00
2018-02-15T17:32:55.810Z,0.90
2018-02-15T17:35:22.647Z,0.90
2018-02-15T17:40:18.272Z,0.80
2018-02-15T17:42:44.776Z,0.70
2018-02-15T17:47:40.745Z,0.70
2018-02-15T17:50:11.714Z,0.80
2018-02-15T17:52:39.034Z,0.70
2018-02-15T17:55:06.964Z,0.80
2018-02-15T17:57:33.854Z,0.80
2018-02-15T18:00:00.581Z,0.80
2018-02-15T18:02:28.896Z,0.70
2018-02-15T18:04:56.271Z,0.80
2018-02-15T18:07:22.912Z,0.80
2018-02-15T18:09:49.577Z,0.80
2018-02-15T18:12:16.061Z,0.80
2018-02-15T18:14:42.635Z,0.80
2018-02-15T18:17:09.299Z,0.80
2018-02-15T18:19:36.602Z,0.80
2018-02-15T18:22:03.118Z,0.80
2018-02-15T18:24:29.702Z,0.40
2018-02-15T18:26:56.232Z,0.70
2018-02-15T18:29:23.491Z,0.70
2018-02-15T18:31:50.384Z,0.70
2018-02-15T18:36:45.239Z,0.60
2018-02-15T18:39:11.822Z,0.70
2018-02-15T18:41:39.201Z,0.60
2018-02-15T18:46:36.091Z,0.70
2018-02-15T18:49:04.896Z,0.60
2018-02-15T18:51:32.624Z,0.60
2018-02-15T18:53:59.744Z,0.60
2018-02-15T18:56:26.421Z,0.60
2018-02-15T18:58:53.727Z,0.70
2018-02-15T19:01:20.843Z,0.60
2018-02-15T19:06:15.794Z,0.60
2018-02-15T19:08:43.577Z,0.50
2018-02-15T19:11:10.577Z,0.50
2018-02-15T19:13:37.935Z,0.60
2018-02-15T19:16:04.650Z,0.60
2018-02-15T19:18:31.967Z,2.30
2018-02-15T19:20:59.339Z,0.50
2018-02-15T19:23:27.004Z,0.50
2018-02-15T19:25:54.766Z,0.50
2018-02-15T19:28:21.358Z,0.40
2018-02-15T19:30:48.314Z,0.40
2018-02-15T19:33:14.853Z,0.50
2018-02-15T19:35:41.547Z,0.40
2018-02-15T19:38:08.194Z,0.40
2018-02-15T19:40:34.770Z,0.40
2018-02-15T19:43:01.395Z,0.40
2018-02-15T19:45:31.882Z,0.50
2018-02-15T19:47:59.021Z,0.40
2018-02-15T19:50:26.858Z,0.50
2018-02-15T19:52:55.020Z,0.50
2018-02-15T19:55:22.114Z,0.70
2018-02-15T19:57:48.690Z,0.40
2018-02-15T20:00:15.664Z,0.50
2018-02-15T20:02:42.492Z,0.40
2018-02-15T20:05:09.129Z,0.40
2018-02-15T20:07:35.971Z,0.40
2018-02-15T20:10:04.916Z,0.40
2018-02-15T20:12:31.530Z,0.70
2018-02-15T20:14:59.592Z,0.40
2018-02-15T20:17:26.156Z,0.40
2018-02-15T20:19:58.769Z,0.40
2018-02-15T20:22:32.845Z,0.50
2018-02-15T20:25:05.064Z,0.40
2018-02-15T20:30:32.940Z,0.50
2018-02-15T20:33:00.283Z,0.40
2018-02-15T20:35:30.711Z,0.30
2018-02-15T20:38:05.359Z,0.40
2018-02-15T20:40:36.960Z,0.40
2018-02-15T20:43:03.886Z,0.50
2018-02-15T20:45:30.508Z,0.30
2018-02-15T20:47:58.973Z,0.40
2018-02-15T20:50:31.482Z,0.50
2018-02-15T20:53:05.366Z,0.20
2018-02-15T20:55:38.021Z,0.40
2018-02-15T20:58:04.484Z,0.50
2018-02-15T21:00:31.034Z,0.40
2018-02-15T21:02:58.340Z,0.50
2018-02-15T21:05:25.547Z,0.40
2018-02-15T21:07:52.064Z,0.50
2018-02-15T21:10:18.581Z,0.50
2018-02-15T21:12:45.458Z,0.50
2018-02-15T21:15:12.372Z,0.50
2018-02-15T21:17:39.296Z,1.00
2018-02-15T21:20:06.629Z,0.50
2018-02-15T21:22:33.152Z,0.40
2018-02-15T21:25:00.791Z,0.50
2018-02-15T21:27:28.137Z,0.50
2018-02-15T21:29:54.662Z,0.50
2018-02-15T21:32:22.032Z,0.50
2018-02-15T21:34:49.024Z,0.50
2018-02-15T21:37:16.361Z,0.50
2018-02-15T21:39:43.988Z,0.50
2018-02-15T21:42:11.229Z,0.50
2018-02-15T21:44:43.514Z,0.40
2018-02-15T21:47:10.840Z,0.50
2018-02-15T21:49:38.802Z,0.50
2018-02-15T21:52:05.614Z,0.00
2018-02-15T21:54:32.349Z,0.40
2018-02-15T21:56:59.061Z,0.60
2018-02-15T21:59:25.473Z,0.60
2018-02-15T22:01:52.017Z,0.60
2018-02-15T22:04:18.779Z,0.60
2018-02-15T22:06:45.205Z,0.60
2018-02-15T22:09:11.643Z,0.70
2018-02-15T22:11:39.537Z,0.70
2018-02-15T22:14:06.285Z,0.70
2018-02-15T22:16:33.954Z,0.60
2018-02-15T22:19:01.164Z,0.70
2018-02-15T22:21:28.972Z,0.70
2018-02-15T22:23:56.503Z,0.60
2018-02-15T22:26:23.967Z,0.60
2018-02-15T22:28:51.620Z,0.40
2018-02-15T22:31:19.652Z,0.60
2018-02-15T22:33:46.202Z,0.70
2018-02-15T22:36:13.420Z,0.60
2018-02-15T22:38:40.641Z,0.80
2018-02-15T22:41:07.657Z,0.70
2018-02-15T22:43:34.632Z,0.60
2018-02-15T22:46:01.981Z,0.80
2018-02-15T22:48:29.274Z,0.80
2018-02-15T22:50:57.111Z,0.80
2018-02-15T22:53:24.324Z,0.80
2018-02-15T22:55:51.943Z,0.80
2018-02-15T22:58:19.364Z,0.90
2018-02-15T23:00:46.360Z,0.90
2018-02-15T23:03:13.055Z,0.90
2018-02-15T23:05:39.809Z,1.00
2018-02-15T23:08:07.306Z,1.10
2018-02-15T23:10:35.783Z,1.00
2018-02-15T23:13:02.917Z,1.00
2018-02-15T23:15:29.661Z,1.00
2018-02-15T23:17:56.405Z,0.90
2018-02-15T23:20:23.001Z,1.00
2018-02-15T23:22:49.645Z,1.10
2018-02-15T23:25:17.170Z,1.70
2018-02-15T23:27:43.532Z,1.10
2018-02-15T23:30:10.016Z,1.20
2018-02-15T23:32:37.053Z,1.20
2018-02-15T23:35:03.529Z,1.10
2018-02-15T23:37:31.244Z,1.20
2018-02-15T23:39:57.676Z,1.30
2018-02-15T23:42:24.215Z,1.30
2018-02-15T23:44:51.902Z,1.20
2018-02-15T23:47:19.592Z,1.20
2018-02-15T23:49:47.309Z,1.30
2018-02-15T23:52:14.373Z,1.30
2018-02-15T23:54:43.072Z,1.30
2018-02-15T23:57:09.640Z,1.40
2018-02-15T23:59:36.855Z,1.40
